sensor_id;sensor_type;location;lat;lon;timestamp;P1;durP1;ratioP1;P2;durP2;ratioP2
24547;SDS011;12713;51.624;4.924;2024-03-17T00:02:06;11.82;;;6.47;;
24547;SDS011;12713;51.624;4.924;2024-03-17T00:04:32;11.68;;;6.53;;
24547;SDS011;12713;51.624;4.924;2024-03-17T00:07:01;12.77;;;7.00;;
24547;SDS011;12713;51.624;4.924;2024-03-17T00:09:27;10.82;;;6.60;;
24547;SDS011;12713;51.624;4.924;2024-03-17T00:11:54;11.38;;;6.43;;
24547;SDS011;12713;51.624;4.924;2024-03-17T00:14:20;13.35;;;6.60;;
24547;SDS011;12713;51.624;4.924;2024-03-17T00:16:49;12.95;;;6.63;;
24547;SDS011;12713;51.624;4.924;2024-03-17T00:19:15;9.70;;;6.60;;
24547;SDS011;12713;51.624;4.924;2024-03-17T00:21:47;12.20;;;8.05;;
24547;SDS011;12713;51.624;4.924;2024-03-17T00:24:15;11.15;;;7.50;;
24547;SDS011;12713;51.624;4.924;2024-03-17T00:26:41;11.65;;;7.65;;
24547;SDS011;12713;51.624;4.924;2024-03-17T00:29:07;13.48;;;7.07;;
24547;SDS011;12713;51.624;4.924;2024-03-17T00:31:33;12.23;;;7.18;;
24547;SDS011;12713;51.624;4.924;2024-03-17T00:34:00;12.30;;;7.32;;
24547;SDS011;12713;51.624;4.924;2024-03-17T00:36:26;13.52;;;7.78;;
24547;SDS011;12713;51.624;4.924;2024-03-17T00:38:51;11.15;;;7.03;;
24547;SDS011;12713;51.624;4.924;2024-03-17T00:41:17;10.88;;;7.93;;
24547;SDS011;12713;51.624;4.924;2024-03-17T00:43:48;17.60;;;8.18;;
24547;SDS011;12713;51.624;4.924;2024-03-17T00:46:13;12.77;;;7.90;;
24547;SDS011;12713;51.624;4.924;2024-03-17T00:48:40;12.07;;;8.57;;
24547;SDS011;12713;51.624;4.924;2024-03-17T00:51:06;14.93;;;7.88;;
24547;SDS011;12713;51.624;4.924;2024-03-17T00:53:31;15.73;;;9.05;;
24547;SDS011;12713;51.624;4.924;2024-03-17T00:55:57;16.52;;;9.35;;
24547;SDS011;12713;51.624;4.924;2024-03-17T00:58:25;12.50;;;8.60;;
24547;SDS011;12713;51.624;4.924;2024-03-17T01:00:51;13.05;;;8.00;;
24547;SDS011;12713;51.624;4.924;2024-03-17T01:03:17;13.30;;;8.85;;
24547;SDS011;12713;51.624;4.924;2024-03-17T01:05:43;16.42;;;7.82;;
24547;SDS011;12713;51.624;4.924;2024-03-17T01:08:12;14.57;;;8.40;;
24547;SDS011;12713;51.624;4.924;2024-03-17T01:10:41;12.80;;;8.80;;
24547;SDS011;12713;51.624;4.924;2024-03-17T01:13:07;13.20;;;8.98;;
24547;SDS011;12713;51.624;4.924;2024-03-17T01:15:37;15.93;;;8.43;;
24547;SDS011;12713;51.624;4.924;2024-03-17T01:18:06;15.90;;;9.40;;
24547;SDS011;12713;51.624;4.924;2024-03-17T01:20:35;12.38;;;7.90;;
24547;SDS011;12713;51.624;4.924;2024-03-17T01:23:02;14.30;;;8.85;;
24547;SDS011;12713;51.624;4.924;2024-03-17T01:25:28;12.48;;;9.32;;
24547;SDS011;12713;51.624;4.924;2024-03-17T01:27:55;16.52;;;9.13;;
24547;SDS011;12713;51.624;4.924;2024-03-17T01:30:22;16.98;;;8.85;;
24547;SDS011;12713;51.624;4.924;2024-03-17T01:32:49;11.18;;;8.60;;
24547;SDS011;12713;51.624;4.924;2024-03-17T01:35:15;17.83;;;10.13;;
24547;SDS011;12713;51.624;4.924;2024-03-17T01:37:41;12.35;;;10.38;;
24547;SDS011;12713;51.624;4.924;2024-03-17T01:40:07;16.63;;;9.75;;
24547;SDS011;12713;51.624;4.924;2024-03-17T01:42:40;12.60;;;9.30;;
24547;SDS011;12713;51.624;4.924;2024-03-17T01:45:18;14.15;;;9.20;;
24547;SDS011;12713;51.624;4.924;2024-03-17T01:47:46;12.60;;;9.05;;
24547;SDS011;12713;51.624;4.924;2024-03-17T01:50:12;16.23;;;10.05;;
24547;SDS011;12713;51.624;4.924;2024-03-17T01:52:41;17.08;;;10.15;;
24547;SDS011;12713;51.624;4.924;2024-03-17T01:55:07;16.67;;;10.70;;
24547;SDS011;12713;51.624;4.924;2024-03-17T01:57:33;14.40;;;10.50;;
24547;SDS011;12713;51.624;4.924;2024-03-17T01:59:59;15.70;;;10.18;;
24547;SDS011;12713;51.624;4.924;2024-03-17T02:02:26;13.73;;;9.48;;
24547;SDS011;12713;51.624;4.924;2024-03-17T02:04:52;14.77;;;10.32;;
24547;SDS011;12713;51.624;4.924;2024-03-17T02:07:18;19.20;;;10.32;;
24547;SDS011;12713;51.624;4.924;2024-03-17T02:09:44;17.90;;;10.13;;
24547;SDS011;12713;51.624;4.924;2024-03-17T02:12:10;13.43;;;9.35;;
24547;SDS011;12713;51.624;4.924;2024-03-17T02:14:37;16.33;;;10.35;;
24547;SDS011;12713;51.624;4.924;2024-03-17T02:17:04;13.45;;;10.27;;
24547;SDS011;12713;51.624;4.924;2024-03-17T02:19:30;15.50;;;11.15;;
24547;SDS011;12713;51.624;4.924;2024-03-17T02:21:56;15.38;;;10.25;;
24547;SDS011;12713;51.624;4.924;2024-03-17T02:24:22;12.77;;;10.18;;
24547;SDS011;12713;51.624;4.924;2024-03-17T02:26:48;16.30;;;11.48;;
24547;SDS011;12713;51.624;4.924;2024-03-17T02:29:14;15.80;;;10.75;;
24547;SDS011;12713;51.624;4.924;2024-03-17T02:31:40;18.08;;;10.77;;
24547;SDS011;12713;51.624;4.924;2024-03-17T02:34:06;12.98;;;10.27;;
24547;SDS011;12713;51.624;4.924;2024-03-17T02:36:32;15.00;;;10.75;;
24547;SDS011;12713;51.624;4.924;2024-03-17T02:38:58;15.63;;;10.45;;
24547;SDS011;12713;51.624;4.924;2024-03-17T02:41:43;13.50;;;9.75;;
24547;SDS011;12713;51.624;4.924;2024-03-17T02:44:10;14.20;;;11.18;;
24547;SDS011;12713;51.624;4.924;2024-03-17T02:46:37;14.85;;;10.00;;
24547;SDS011;12713;51.624;4.924;2024-03-17T02:49:03;18.05;;;10.93;;
24547;SDS011;12713;51.624;4.924;2024-03-17T02:51:29;19.15;;;11.00;;
24547;SDS011;12713;51.624;4.924;2024-03-17T02:53:55;13.27;;;10.20;;
24547;SDS011;12713;51.624;4.924;2024-03-17T02:56:24;17.45;;;11.55;;
24547;SDS011;12713;51.624;4.924;2024-03-17T02:58:50;17.35;;;11.65;;
24547;SDS011;12713;51.624;4.924;2024-03-17T03:01:17;19.35;;;11.63;;
24547;SDS011;12713;51.624;4.924;2024-03-17T03:03:44;17.55;;;11.25;;
24547;SDS011;12713;51.624;4.924;2024-03-17T03:06:10;17.48;;;10.43;;
24547;SDS011;12713;51.624;4.924;2024-03-17T03:08:38;16.23;;;11.35;;
24547;SDS011;12713;51.624;4.924;2024-03-17T03:11:06;16.77;;;11.55;;
24547;SDS011;12713;51.624;4.924;2024-03-17T03:13:32;16.92;;;11.48;;
24547;SDS011;12713;51.624;4.924;2024-03-17T03:15:58;16.67;;;10.82;;
24547;SDS011;12713;51.624;4.924;2024-03-17T03:18:24;14.05;;;10.40;;
24547;SDS011;12713;51.624;4.924;2024-03-17T03:20:51;18.00;;;11.77;;
24547;SDS011;12713;51.624;4.924;2024-03-17T03:23:17;19.67;;;11.68;;
24547;SDS011;12713;51.624;4.924;2024-03-17T03:25:44;20.65;;;11.93;;
24547;SDS011;12713;51.624;4.924;2024-03-17T03:28:11;18.17;;;11.65;;
24547;SDS011;12713;51.624;4.924;2024-03-17T03:30:38;17.77;;;11.55;;
24547;SDS011;12713;51.624;4.924;2024-03-17T03:33:04;17.20;;;10.57;;
24547;SDS011;12713;51.624;4.924;2024-03-17T03:35:30;16.08;;;11.05;;
24547;SDS011;12713;51.624;4.924;2024-03-17T03:37:56;14.75;;;11.98;;
24547;SDS011;12713;51.624;4.924;2024-03-17T03:40:22;19.17;;;11.75;;
24547;SDS011;12713;51.624;4.924;2024-03-17T03:42:50;18.25;;;12.00;;
24547;SDS011;12713;51.624;4.924;2024-03-17T03:45:16;15.00;;;10.77;;
24547;SDS011;12713;51.624;4.924;2024-03-17T03:47:42;17.83;;;11.18;;
24547;SDS011;12713;51.624;4.924;2024-03-17T03:50:09;15.55;;;11.18;;
24547;SDS011;12713;51.624;4.924;2024-03-17T03:52:38;17.55;;;11.15;;
24547;SDS011;12713;51.624;4.924;2024-03-17T03:55:07;13.73;;;10.02;;
24547;SDS011;12713;51.624;4.924;2024-03-17T03:57:35;17.55;;;11.48;;
24547;SDS011;12713;51.624;4.924;2024-03-17T04:00:01;15.40;;;10.57;;
24547;SDS011;12713;51.624;4.924;2024-03-17T04:02:37;15.63;;;10.00;;
24547;SDS011;12713;51.624;4.924;2024-03-17T04:05:03;15.90;;;9.77;;
24547;SDS011;12713;51.624;4.924;2024-03-17T04:07:29;16.58;;;10.48;;
24547;SDS011;12713;51.624;4.924;2024-03-17T04:09:55;15.45;;;9.93;;
24547;SDS011;12713;51.624;4.924;2024-03-17T04:12:22;15.43;;;10.05;;
24547;SDS011;12713;51.624;4.924;2024-03-17T04:14:48;15.88;;;10.23;;
24547;SDS011;12713;51.624;4.924;2024-03-17T04:17:18;16.17;;;11.30;;
24547;SDS011;12713;51.624;4.924;2024-03-17T04:19:46;16.20;;;10.60;;
24547;SDS011;12713;51.624;4.924;2024-03-17T04:22:12;14.30;;;9.88;;
24547;SDS011;12713;51.624;4.924;2024-03-17T04:24:38;15.85;;;10.07;;
24547;SDS011;12713;51.624;4.924;2024-03-17T04:27:04;14.55;;;11.00;;
24547;SDS011;12713;51.624;4.924;2024-03-17T04:29:30;16.50;;;10.60;;
24547;SDS011;12713;51.624;4.924;2024-03-17T04:31:56;18.30;;;10.55;;
24547;SDS011;12713;51.624;4.924;2024-03-17T04:34:22;16.30;;;10.60;;
24547;SDS011;12713;51.624;4.924;2024-03-17T04:36:48;15.85;;;10.77;;
24547;SDS011;12713;51.624;4.924;2024-03-17T04:39:14;14.70;;;10.13;;
24547;SDS011;12713;51.624;4.924;2024-03-17T04:41:40;16.65;;;10.73;;
24547;SDS011;12713;51.624;4.924;2024-03-17T04:44:08;15.63;;;11.02;;
24547;SDS011;12713;51.624;4.924;2024-03-17T04:46:34;16.08;;;11.10;;
24547;SDS011;12713;51.624;4.924;2024-03-17T04:49:00;14.73;;;10.43;;
24547;SDS011;12713;51.624;4.924;2024-03-17T04:51:29;16.45;;;11.25;;
24547;SDS011;12713;51.624;4.924;2024-03-17T04:53:58;16.40;;;11.80;;
24547;SDS011;12713;51.624;4.924;2024-03-17T04:56:24;17.00;;;11.90;;
24547;SDS011;12713;51.624;4.924;2024-03-17T04:58:50;13.65;;;10.68;;
24547;SDS011;12713;51.624;4.924;2024-03-17T05:01:16;15.45;;;11.25;;
24547;SDS011;12713;51.624;4.924;2024-03-17T05:03:42;18.90;;;11.98;;
24547;SDS011;12713;51.624;4.924;2024-03-17T05:06:08;17.88;;;11.85;;
24547;SDS011;12713;51.624;4.924;2024-03-17T05:08:34;14.82;;;10.98;;
24547;SDS011;12713;51.624;4.924;2024-03-17T05:11:01;15.05;;;11.52;;
24547;SDS011;12713;51.624;4.924;2024-03-17T05:13:30;16.98;;;11.95;;
24547;SDS011;12713;51.624;4.924;2024-03-17T05:16:02;17.83;;;11.07;;
24547;SDS011;12713;51.624;4.924;2024-03-17T05:18:31;14.67;;;11.17;;
24547;SDS011;12713;51.624;4.924;2024-03-17T05:21:01;19.35;;;11.10;;
24547;SDS011;12713;51.624;4.924;2024-03-17T05:23:28;19.60;;;11.88;;
24547;SDS011;12713;51.624;4.924;2024-03-17T05:25:55;15.35;;;11.20;;
24547;SDS011;12713;51.624;4.924;2024-03-17T05:28:21;18.23;;;11.13;;
24547;SDS011;12713;51.624;4.924;2024-03-17T05:30:47;17.38;;;11.45;;
24547;SDS011;12713;51.624;4.924;2024-03-17T05:33:15;15.98;;;10.55;;
24547;SDS011;12713;51.624;4.924;2024-03-17T05:35:47;18.42;;;10.23;;
24547;SDS011;12713;51.624;4.924;2024-03-17T05:38:14;17.67;;;10.88;;
24547;SDS011;12713;51.624;4.924;2024-03-17T05:40:40;16.25;;;11.13;;
24547;SDS011;12713;51.624;4.924;2024-03-17T05:43:06;18.60;;;10.90;;
24547;SDS011;12713;51.624;4.924;2024-03-17T05:45:32;16.73;;;10.88;;
24547;SDS011;12713;51.624;4.924;2024-03-17T05:47:58;17.23;;;10.95;;
24547;SDS011;12713;51.624;4.924;2024-03-17T05:50:29;18.70;;;12.15;;
24547;SDS011;12713;51.624;4.924;2024-03-17T05:52:55;16.25;;;10.40;;
24547;SDS011;12713;51.624;4.924;2024-03-17T05:55:21;15.93;;;10.95;;
24547;SDS011;12713;51.624;4.924;2024-03-17T05:57:47;17.55;;;11.75;;
24547;SDS011;12713;51.624;4.924;2024-03-17T06:00:13;18.25;;;11.27;;
24547;SDS011;12713;51.624;4.924;2024-03-17T06:02:40;18.63;;;11.27;;
24547;SDS011;12713;51.624;4.924;2024-03-17T06:05:06;17.63;;;11.98;;
24547;SDS011;12713;51.624;4.924;2024-03-17T06:07:35;15.85;;;11.40;;
24547;SDS011;12713;51.624;4.924;2024-03-17T06:10:01;19.02;;;12.55;;
24547;SDS011;12713;51.624;4.924;2024-03-17T06:12:27;17.08;;;12.27;;
24547;SDS011;12713;51.624;4.924;2024-03-17T06:14:53;16.98;;;12.25;;
24547;SDS011;12713;51.624;4.924;2024-03-17T06:17:19;17.10;;;12.07;;
24547;SDS011;12713;51.624;4.924;2024-03-17T06:19:48;22.80;;;11.98;;
24547;SDS011;12713;51.624;4.924;2024-03-17T06:22:14;17.27;;;11.43;;
24547;SDS011;12713;51.624;4.924;2024-03-17T06:24:40;19.88;;;12.57;;
24547;SDS011;12713;51.624;4.924;2024-03-17T06:27:09;18.15;;;11.73;;
24547;SDS011;12713;51.624;4.924;2024-03-17T06:29:35;20.88;;;12.32;;
24547;SDS011;12713;51.624;4.924;2024-03-17T06:32:01;19.92;;;12.40;;
24547;SDS011;12713;51.624;4.924;2024-03-17T06:34:27;16.70;;;11.40;;
24547;SDS011;12713;51.624;4.924;2024-03-17T06:36:53;15.35;;;11.63;;
24547;SDS011;12713;51.624;4.924;2024-03-17T06:39:19;15.68;;;10.95;;
24547;SDS011;12713;51.624;4.924;2024-03-17T06:41:46;19.17;;;11.73;;
24547;SDS011;12713;51.624;4.924;2024-03-17T06:44:12;20.60;;;11.35;;
24547;SDS011;12713;51.624;4.924;2024-03-17T06:46:38;18.48;;;11.32;;
24547;SDS011;12713;51.624;4.924;2024-03-17T06:49:04;19.15;;;12.70;;
24547;SDS011;12713;51.624;4.924;2024-03-17T06:51:30;22.58;;;11.48;;
24547;SDS011;12713;51.624;4.924;2024-03-17T06:53:56;21.10;;;12.10;;
24547;SDS011;12713;51.624;4.924;2024-03-17T06:56:23;19.75;;;11.93;;
24547;SDS011;12713;51.624;4.924;2024-03-17T06:58:50;18.70;;;10.50;;
24547;SDS011;12713;51.624;4.924;2024-03-17T07:01:17;16.23;;;10.45;;
24547;SDS011;12713;51.624;4.924;2024-03-17T07:03:44;16.38;;;10.60;;
24547;SDS011;12713;51.624;4.924;2024-03-17T07:06:10;17.92;;;10.38;;
24547;SDS011;12713;51.624;4.924;2024-03-17T07:08:36;19.17;;;10.55;;
24547;SDS011;12713;51.624;4.924;2024-03-17T07:11:03;18.00;;;10.95;;
24547;SDS011;12713;51.624;4.924;2024-03-17T07:13:30;16.30;;;10.60;;
24547;SDS011;12713;51.624;4.924;2024-03-17T07:15:57;16.05;;;10.18;;
24547;SDS011;12713;51.624;4.924;2024-03-17T07:18:24;14.27;;;9.88;;
24547;SDS011;12713;51.624;4.924;2024-03-17T07:20:50;15.10;;;9.88;;
24547;SDS011;12713;51.624;4.924;2024-03-17T07:23:16;14.25;;;9.77;;
24547;SDS011;12713;51.624;4.924;2024-03-17T07:25:50;17.20;;;9.73;;
24547;SDS011;12713;51.624;4.924;2024-03-17T07:28:17;14.48;;;9.75;;
24547;SDS011;12713;51.624;4.924;2024-03-17T07:30:49;13.23;;;9.75;;
24547;SDS011;12713;51.624;4.924;2024-03-17T07:38:14;14.77;;;9.13;;
24547;SDS011;12713;51.624;4.924;2024-03-17T07:40:41;15.25;;;9.82;;
24547;SDS011;12713;51.624;4.924;2024-03-17T07:43:07;16.38;;;10.07;;
24547;SDS011;12713;51.624;4.924;2024-03-17T07:45:33;18.38;;;10.20;;
24547;SDS011;12713;51.624;4.924;2024-03-17T07:47:59;13.10;;;8.77;;
24547;SDS011;12713;51.624;4.924;2024-03-17T07:50:25;15.15;;;9.60;;
24547;SDS011;12713;51.624;4.924;2024-03-17T07:52:52;13.52;;;9.32;;
24547;SDS011;12713;51.624;4.924;2024-03-17T07:55:18;11.77;;;8.82;;
24547;SDS011;12713;51.624;4.924;2024-03-17T07:57:44;14.95;;;9.23;;
24547;SDS011;12713;51.624;4.924;2024-03-17T08:00:10;13.68;;;9.27;;
24547;SDS011;12713;51.624;4.924;2024-03-17T08:02:49;12.48;;;8.77;;
24547;SDS011;12713;51.624;4.924;2024-03-17T08:05:15;17.23;;;10.05;;
24547;SDS011;12713;51.624;4.924;2024-03-17T08:07:41;16.27;;;9.73;;
24547;SDS011;12713;51.624;4.924;2024-03-17T08:10:07;14.48;;;9.25;;
24547;SDS011;12713;51.624;4.924;2024-03-17T08:12:34;11.60;;;8.85;;
24547;SDS011;12713;51.624;4.924;2024-03-17T08:15:00;12.90;;;8.95;;
24547;SDS011;12713;51.624;4.924;2024-03-17T08:17:26;14.52;;;9.80;;
24547;SDS011;12713;51.624;4.924;2024-03-17T08:19:52;13.73;;;9.07;;
24547;SDS011;12713;51.624;4.924;2024-03-17T08:22:18;15.50;;;9.48;;
24547;SDS011;12713;51.624;4.924;2024-03-17T08:24:44;13.93;;;9.23;;
24547;SDS011;12713;51.624;4.924;2024-03-17T08:27:11;12.07;;;8.40;;
24547;SDS011;12713;51.624;4.924;2024-03-17T08:29:37;14.27;;;8.73;;
24547;SDS011;12713;51.624;4.924;2024-03-17T08:32:03;11.50;;;8.55;;
24547;SDS011;12713;51.624;4.924;2024-03-17T08:34:29;14.95;;;9.52;;
24547;SDS011;12713;51.624;4.924;2024-03-17T08:36:55;11.52;;;8.23;;
24547;SDS011;12713;51.624;4.924;2024-03-17T08:39:22;12.82;;;8.40;;
24547;SDS011;12713;51.624;4.924;2024-03-17T08:41:48;11.38;;;8.77;;
24547;SDS011;12713;51.624;4.924;2024-03-17T08:44:14;12.93;;;8.98;;
24547;SDS011;12713;51.624;4.924;2024-03-17T08:46:40;11.88;;;8.45;;
24547;SDS011;12713;51.624;4.924;2024-03-17T08:49:06;14.65;;;8.45;;
24547;SDS011;12713;51.624;4.924;2024-03-17T08:51:32;12.70;;;8.40;;
24547;SDS011;12713;51.624;4.924;2024-03-17T08:53:58;12.40;;;8.57;;
24547;SDS011;12713;51.624;4.924;2024-03-17T08:56:24;13.65;;;8.48;;
24547;SDS011;12713;51.624;4.924;2024-03-17T08:58:50;14.07;;;8.95;;
24547;SDS011;12713;51.624;4.924;2024-03-17T09:01:16;13.30;;;8.45;;
24547;SDS011;12713;51.624;4.924;2024-03-17T09:03:42;10.10;;;8.05;;
24547;SDS011;12713;51.624;4.924;2024-03-17T09:06:15;11.10;;;8.35;;
24547;SDS011;12713;51.624;4.924;2024-03-17T09:08:41;11.40;;;8.38;;
24547;SDS011;12713;51.624;4.924;2024-03-17T09:11:16;13.75;;;8.27;;
24547;SDS011;12713;51.624;4.924;2024-03-17T09:13:42;12.20;;;8.60;;
24547;SDS011;12713;51.624;4.924;2024-03-17T09:16:08;12.95;;;8.50;;
24547;SDS011;12713;51.624;4.924;2024-03-17T09:18:36;12.75;;;8.38;;
24547;SDS011;12713;51.624;4.924;2024-03-17T09:21:06;13.52;;;8.07;;
24547;SDS011;12713;51.624;4.924;2024-03-17T09:23:32;10.05;;;7.50;;
24547;SDS011;12713;51.624;4.924;2024-03-17T09:28:28;14.43;;;7.50;;
24547;SDS011;12713;51.624;4.924;2024-03-17T09:30:54;12.07;;;7.53;;
24547;SDS011;12713;51.624;4.924;2024-03-17T09:33:21;13.23;;;7.28;;
24547;SDS011;12713;51.624;4.924;2024-03-17T09:36:01;11.65;;;7.32;;
24547;SDS011;12713;51.624;4.924;2024-03-17T09:38:27;10.90;;;6.72;;
24547;SDS011;12713;51.624;4.924;2024-03-17T09:40:53;10.40;;;6.50;;
24547;SDS011;12713;51.624;4.924;2024-03-17T09:43:25;9.10;;;6.20;;
24547;SDS011;12713;51.624;4.924;2024-03-17T09:45:51;9.63;;;6.90;;
24547;SDS011;12713;51.624;4.924;2024-03-17T09:48:20;10.05;;;6.82;;
24547;SDS011;12713;51.624;4.924;2024-03-17T09:50:49;12.15;;;7.32;;
24547;SDS011;12713;51.624;4.924;2024-03-17T09:53:16;12.18;;;6.60;;
24547;SDS011;12713;51.624;4.924;2024-03-17T09:55:43;9.95;;;6.47;;
24547;SDS011;12713;51.624;4.924;2024-03-17T09:58:14;11.20;;;7.05;;
24547;SDS011;12713;51.624;4.924;2024-03-17T10:00:41;12.03;;;7.37;;
24547;SDS011;12713;51.624;4.924;2024-03-17T10:03:07;19.10;;;7.30;;
24547;SDS011;12713;51.624;4.924;2024-03-17T10:05:33;8.80;;;6.63;;
24547;SDS011;12713;51.624;4.924;2024-03-17T10:07:59;14.85;;;7.53;;
24547;SDS011;12713;51.624;4.924;2024-03-17T10:10:25;8.82;;;6.57;;
24547;SDS011;12713;51.624;4.924;2024-03-17T10:12:52;11.80;;;6.45;;
24547;SDS011;12713;51.624;4.924;2024-03-17T10:15:18;11.00;;;6.53;;
24547;SDS011;12713;51.624;4.924;2024-03-17T10:17:48;12.15;;;6.43;;
24547;SDS011;12713;51.624;4.924;2024-03-17T10:20:18;10.25;;;6.88;;
24547;SDS011;12713;51.624;4.924;2024-03-17T10:23:04;10.60;;;6.15;;
24547;SDS011;12713;51.624;4.924;2024-03-17T10:25:31;11.80;;;6.75;;
24547;SDS011;12713;51.624;4.924;2024-03-17T10:27:57;12.02;;;7.13;;
24547;SDS011;12713;51.624;4.924;2024-03-17T10:30:24;10.45;;;6.60;;
24547;SDS011;12713;51.624;4.924;2024-03-17T10:32:58;16.77;;;6.50;;
24547;SDS011;12713;51.624;4.924;2024-03-17T10:35:32;11.65;;;7.15;;
24547;SDS011;12713;51.624;4.924;2024-03-17T10:38:02;10.88;;;6.70;;
24547;SDS011;12713;51.624;4.924;2024-03-17T10:40:29;12.50;;;7.38;;
24547;SDS011;12713;51.624;4.924;2024-03-17T10:42:56;10.95;;;6.05;;
24547;SDS011;12713;51.624;4.924;2024-03-17T10:45:23;13.18;;;5.65;;
24547;SDS011;12713;51.624;4.924;2024-03-17T10:47:50;10.43;;;6.05;;
24547;SDS011;12713;51.624;4.924;2024-03-17T10:50:20;11.75;;;5.60;;
24547;SDS011;12713;51.624;4.924;2024-03-17T10:52:48;7.82;;;4.70;;
24547;SDS011;12713;51.624;4.924;2024-03-17T10:57:46;6.53;;;4.68;;
24547;SDS011;12713;51.624;4.924;2024-03-17T11:00:19;10.00;;;4.90;;
24547;SDS011;12713;51.624;4.924;2024-03-17T11:02:47;9.18;;;4.95;;
24547;SDS011;12713;51.624;4.924;2024-03-17T11:05:18;8.75;;;4.72;;
24547;SDS011;12713;51.624;4.924;2024-03-17T11:07:45;6.95;;;3.83;;
24547;SDS011;12713;51.624;4.924;2024-03-17T11:10:15;9.85;;;3.92;;
24547;SDS011;12713;51.624;4.924;2024-03-17T11:12:43;14.50;;;4.63;;
24547;SDS011;12713;51.624;4.924;2024-03-17T11:17:54;13.10;;;5.75;;
24547;SDS011;12713;51.624;4.924;2024-03-17T11:22:51;9.70;;;4.53;;
24547;SDS011;12713;51.624;4.924;2024-03-17T11:28:05;12.48;;;6.85;;
24547;SDS011;12713;51.624;4.924;2024-03-17T11:38:56;15.18;;;5.82;;
24547;SDS011;12713;51.624;4.924;2024-03-17T11:41:30;8.20;;;4.80;;
24547;SDS011;12713;51.624;4.924;2024-03-17T11:46:41;14.00;;;5.65;;
24547;SDS011;12713;51.624;4.924;2024-03-17T11:49:12;8.57;;;5.45;;
24547;SDS011;12713;51.624;4.924;2024-03-17T11:51:42;9.52;;;4.70;;
24547;SDS011;12713;51.624;4.924;2024-03-17T11:54:11;6.80;;;4.60;;
24547;SDS011;12713;51.624;4.924;2024-03-17T11:56:38;10.73;;;5.03;;
24547;SDS011;12713;51.624;4.924;2024-03-17T11:59:05;8.93;;;5.25;;
24547;SDS011;12713;51.624;4.924;2024-03-17T12:01:34;9.40;;;5.35;;
24547;SDS011;12713;51.624;4.924;2024-03-17T12:04:00;10.88;;;5.35;;
24547;SDS011;12713;51.624;4.924;2024-03-17T12:06:30;6.90;;;5.35;;
24547;SDS011;12713;51.624;4.924;2024-03-17T12:11:35;12.38;;;5.63;;
24547;SDS011;12713;51.624;4.924;2024-03-17T12:14:12;9.15;;;6.32;;
24547;SDS011;12713;51.624;4.924;2024-03-17T12:16:46;8.60;;;5.63;;
24547;SDS011;12713;51.624;4.924;2024-03-17T12:19:13;8.95;;;6.05;;
24547;SDS011;12713;51.624;4.924;2024-03-17T12:21:42;10.68;;;5.20;;
24547;SDS011;12713;51.624;4.924;2024-03-17T12:24:12;10.63;;;5.78;;
24547;SDS011;12713;51.624;4.924;2024-03-17T12:26:39;10.15;;;5.47;;
24547;SDS011;12713;51.624;4.924;2024-03-17T12:29:20;24.90;;;17.13;;
24547;SDS011;12713;51.624;4.924;2024-03-17T12:31:47;14.38;;;9.02;;
24547;SDS011;12713;51.624;4.924;2024-03-17T12:34:13;13.18;;;5.43;;
24547;SDS011;12713;51.624;4.924;2024-03-17T12:36:39;8.98;;;5.47;;
24547;SDS011;12713;51.624;4.924;2024-03-17T12:39:22;12.52;;;5.28;;
24547;SDS011;12713;51.624;4.924;2024-03-17T12:42:01;10.70;;;5.40;;
24547;SDS011;12713;51.624;4.924;2024-03-17T12:44:28;11.93;;;5.05;;
24547;SDS011;12713;51.624;4.924;2024-03-17T12:46:58;7.43;;;4.88;;
24547;SDS011;12713;51.624;4.924;2024-03-17T12:49:30;8.68;;;5.18;;
24547;SDS011;12713;51.624;4.924;2024-03-17T12:51:57;9.45;;;5.03;;
24547;SDS011;12713;51.624;4.924;2024-03-17T12:54:25;9.20;;;4.55;;
24547;SDS011;12713;51.624;4.924;2024-03-17T12:56:51;9.73;;;5.00;;
24547;SDS011;12713;51.624;4.924;2024-03-17T12:59:39;7.78;;;5.00;;
24547;SDS011;12713;51.624;4.924;2024-03-17T13:02:25;11.02;;;4.90;;
24547;SDS011;12713;51.624;4.924;2024-03-17T13:07:37;7.53;;;4.20;;
24547;SDS011;12713;51.624;4.924;2024-03-17T13:10:04;8.30;;;4.47;;
24547;SDS011;12713;51.624;4.924;2024-03-17T13:12:32;8.73;;;4.93;;
24547;SDS011;12713;51.624;4.924;2024-03-17T13:14:59;10.10;;;4.13;;
24547;SDS011;12713;51.624;4.924;2024-03-17T13:17:25;10.25;;;3.70;;
24547;SDS011;12713;51.624;4.924;2024-03-17T13:19:53;8.88;;;4.53;;
24547;SDS011;12713;51.624;4.924;2024-03-17T13:22:19;10.05;;;3.72;;
24547;SDS011;12713;51.624;4.924;2024-03-17T13:24:45;6.35;;;4.10;;
24547;SDS011;12713;51.624;4.924;2024-03-17T13:27:12;6.40;;;3.35;;
24547;SDS011;12713;51.624;4.924;2024-03-17T13:29:39;8.30;;;3.70;;
24547;SDS011;12713;51.624;4.924;2024-03-17T13:32:09;10.23;;;4.00;;
24547;SDS011;12713;51.624;4.924;2024-03-17T13:34:35;10.82;;;3.95;;
24547;SDS011;12713;51.624;4.924;2024-03-17T13:37:01;7.07;;;4.00;;
24547;SDS011;12713;51.624;4.924;2024-03-17T13:39:31;8.93;;;3.42;;
24547;SDS011;12713;51.624;4.924;2024-03-17T13:41:58;7.18;;;3.38;;
24547;SDS011;12713;51.624;4.924;2024-03-17T13:44:31;7.05;;;3.90;;
24547;SDS011;12713;51.624;4.924;2024-03-17T13:46:58;9.32;;;4.43;;
24547;SDS011;12713;51.624;4.924;2024-03-17T13:49:26;8.02;;;3.80;;
24547;SDS011;12713;51.624;4.924;2024-03-17T13:51:53;6.22;;;3.42;;
24547;SDS011;12713;51.624;4.924;2024-03-17T13:54:19;8.85;;;3.72;;
24547;SDS011;12713;51.624;4.924;2024-03-17T13:56:48;8.18;;;3.88;;
24547;SDS011;12713;51.624;4.924;2024-03-17T13:59:15;8.50;;;3.90;;
24547;SDS011;12713;51.624;4.924;2024-03-17T14:01:44;9.82;;;4.45;;
24547;SDS011;12713;51.624;4.924;2024-03-17T14:04:14;7.32;;;3.60;;
24547;SDS011;12713;51.624;4.924;2024-03-17T14:06:41;8.23;;;3.08;;
24547;SDS011;12713;51.624;4.924;2024-03-17T14:09:07;5.80;;;3.00;;
24547;SDS011;12713;51.624;4.924;2024-03-17T14:11:37;5.65;;;3.00;;
24547;SDS011;12713;51.624;4.924;2024-03-17T14:14:04;4.43;;;2.90;;
24547;SDS011;12713;51.624;4.924;2024-03-17T14:16:30;4.60;;;2.45;;
24547;SDS011;12713;51.624;4.924;2024-03-17T14:18:59;8.63;;;3.50;;
24547;SDS011;12713;51.624;4.924;2024-03-17T14:21:26;5.68;;;3.03;;
24547;SDS011;12713;51.624;4.924;2024-03-17T14:23:52;5.88;;;2.97;;
24547;SDS011;12713;51.624;4.924;2024-03-17T14:26:19;4.55;;;2.50;;
24547;SDS011;12713;51.624;4.924;2024-03-17T14:28:45;6.60;;;4.43;;
24547;SDS011;12713;51.624;4.924;2024-03-17T14:31:11;9.80;;;3.60;;
24547;SDS011;12713;51.624;4.924;2024-03-17T14:33:37;8.75;;;3.70;;
24547;SDS011;12713;51.624;4.924;2024-03-17T14:36:03;9.63;;;3.05;;
24547;SDS011;12713;51.624;4.924;2024-03-17T14:38:29;4.82;;;3.03;;
24547;SDS011;12713;51.624;4.924;2024-03-17T14:40:55;7.30;;;3.03;;
24547;SDS011;12713;51.624;4.924;2024-03-17T14:43:21;7.95;;;3.10;;
24547;SDS011;12713;51.624;4.924;2024-03-17T14:45:48;6.68;;;2.90;;
24547;SDS011;12713;51.624;4.924;2024-03-17T14:48:14;5.43;;;3.05;;
24547;SDS011;12713;51.624;4.924;2024-03-17T14:50:40;7.72;;;3.20;;
24547;SDS011;12713;51.624;4.924;2024-03-17T14:53:06;5.68;;;2.78;;
24547;SDS011;12713;51.624;4.924;2024-03-17T14:55:32;8.60;;;2.75;;
24547;SDS011;12713;51.624;4.924;2024-03-17T14:57:59;7.60;;;2.83;;
24547;SDS011;12713;51.624;4.924;2024-03-17T15:00:28;4.43;;;2.50;;
24547;SDS011;12713;51.624;4.924;2024-03-17T15:02:56;5.85;;;2.83;;
24547;SDS011;12713;51.624;4.924;2024-03-17T15:05:22;5.07;;;2.75;;
24547;SDS011;12713;51.624;4.924;2024-03-17T15:07:50;5.80;;;2.92;;
24547;SDS011;12713;51.624;4.924;2024-03-17T15:10:16;6.95;;;2.85;;